createdAt,value
2022-08-01T00:02:56.654Z,100424.84
2022-08-01T00:07:55.413Z,100413.16
2022-08-01T00:12:54.220Z,100427.97
2022-08-01T00:17:53.008Z,100424.25
2022-08-01T00:22:53.095Z,100421.59
2022-08-01T00:27:51.950Z,100423.59
2022-08-01T00:32:52.338Z,100417.38
2022-08-01T00:37:52.682Z,100421.63
2022-08-01T00:42:51.446Z,100417.81
2022-08-01T00:47:55.375Z,100411.25
2022-08-01T00:52:56.836Z,100412.59
2022-08-01T00:58:04.655Z,100411.28
2022-08-01T01:03:05.064Z,100414.94
2022-08-01T01:08:16.026Z,100406.56
2022-08-01T01:13:22.769Z,100409.91
2022-08-01T01:18:26.534Z,100413.41
2022-08-01T01:23:40.972Z,100408.06
2022-08-01T01:29:02.831Z,100414.44
2022-08-01T01:34:05.373Z,100417.34
2022-08-01T01:39:04.377Z,100404.75
2022-08-01T01:44:05.979Z,100390.47
2022-08-01T01:49:06.109Z,100385.47
2022-08-01T01:54:07.935Z,100381.59
2022-08-01T01:59:08.164Z,100368.88
2022-08-01T02:04:07.986Z,100374.56
2022-08-01T02:09:09.348Z,100371.72
2022-08-01T02:14:11.639Z,100376.59
2022-08-01T02:19:12.080Z,100377.75
2022-08-01T02:24:16.040Z,100374.22
2022-08-01T02:29:30.172Z,100380.47
2022-08-01T02:34:33.446Z,100375.63
2022-08-01T02:39:34.161Z,100378.78
2022-08-01T02:44:39.596Z,100378.31
2022-08-01T02:49:44.241Z,100371.38
2022-08-01T02:54:47.105Z,100371.41
2022-08-01T02:59:49.062Z,100367.38
2022-08-01T03:04:53.946Z,100366.69
2022-08-01T03:09:56.289Z,100357.66
2022-08-01T03:14:58.960Z,100363.00
2022-08-01T03:20:00.649Z,100368.06
2022-08-01T03:25:01.118Z,100373.41
2022-08-01T03:30:06.041Z,100371.41
2022-08-01T03:35:05.490Z,100368.72
2022-08-01T03:40:09.875Z,100365.22
2022-08-01T03:45:13.702Z,100363.38
2022-08-01T03:50:14.259Z,100376.78
2022-08-01T03:55:15.097Z,100359.84
2022-08-01T04:00:19.568Z,100357.66
2022-08-01T04:05:19.112Z,100363.84
2022-08-01T04:10:18.587Z,100364.03
2022-08-01T04:15:18.927Z,100360.00
2022-08-01T04:20:17.906Z,100351.78
2022-08-01T04:25:23.909Z,100360.00
2022-08-01T04:30:29.294Z,100362.00
2022-08-01T04:36:01.706Z,100361.34
2022-08-01T04:40:52.325Z,100353.63
2022-08-01T04:45:53.758Z,100352.94
2022-08-01T04:50:52.672Z,100345.75
2022-08-01T04:55:51.715Z,100363.38
2022-08-01T05:00:50.501Z,100358.16
2022-08-01T05:05:50.674Z,100356.63
2022-08-01T05:10:49.402Z,100359.31
2022-08-01T05:15:48.200Z,100349.59
2022-08-01T05:20:48.448Z,100353.28
2022-08-01T05:25:58.013Z,100355.66
2022-08-01T05:30:57.881Z,100358.84
2022-08-01T05:35:56.665Z,100346.09
2022-08-01T05:40:56.882Z,100348.25
2022-08-01T05:45:55.841Z,100360.16
2022-08-01T05:50:58.699Z,100351.75
2022-08-01T05:55:59.080Z,100351.94
2022-08-01T06:00:57.874Z,100353.28
2022-08-01T06:05:56.584Z,100352.78
2022-08-01T06:10:55.692Z,100350.78
2022-08-01T06:15:55.839Z,100362.34
2022-08-01T06:20:54.550Z,100352.44
2022-08-01T06:25:55.228Z,100355.13
2022-08-01T06:30:55.549Z,100353.75
2022-08-01T06:35:54.375Z,100360.28
2022-08-01T06:40:53.353Z,100354.59
2022-08-01T06:45:52.197Z,100342.00
2022-08-01T06:51:09.140Z,100362.53
2022-08-01T06:56:09.750Z,100359.69
2022-08-01T07:01:09.333Z,100361.53
2022-08-01T07:06:09.574Z,100361.66
2022-08-01T07:11:08.507Z,100356.09
2022-08-01T07:16:07.355Z,100365.28
2022-08-01T07:21:06.029Z,100364.81
2022-08-01T07:26:17.172Z,100355.19
2022-08-01T07:31:16.201Z,100363.19
2022-08-01T07:36:14.952Z,100358.09
2022-08-01T07:41:13.789Z,100361.69
2022-08-01T07:46:13.989Z,100347.88
2022-08-01T07:51:13.224Z,100351.94
2022-08-01T07:56:11.965Z,100354.06
2022-08-01T08:01:10.811Z,100350.72
2022-08-01T08:06:10.949Z,100357.13
2022-08-01T08:11:09.697Z,100346.13
2022-08-01T08:16:08.950Z,100340.72
2022-08-01T08:21:07.738Z,100337.16
2022-08-01T08:26:08.231Z,100351.00
2022-08-01T08:31:07.126Z,100341.84
2022-08-01T08:36:06.705Z,100348.81
2022-08-01T08:41:08.323Z,100346.16
2022-08-01T08:46:09.725Z,100350.66
2022-08-01T08:51:11.504Z,100347.66
2022-08-01T08:56:14.387Z,100357.88
2022-08-01T09:01:13.885Z,100338.72
2022-08-01T09:06:13.254Z,100352.81
2022-08-01T09:11:23.159Z,100348.06
2022-08-01T09:16:23.879Z,100349.56
2022-08-01T09:21:25.121Z,100340.78
2022-08-01T09:26:34.031Z,100333.41
2022-08-01T09:31:42.454Z,100335.69
2022-08-01T09:36:54.221Z,100326.72
2022-08-01T09:41:56.482Z,100329.13
2022-08-01T09:46:59.457Z,100319.78
2022-08-01T09:52:15.453Z,100314.56
2022-08-01T09:57:18.220Z,100322.56
2022-08-01T10:29:24.297Z,100358.41
2022-08-01T10:34:27.261Z,100346.91
2022-08-01T10:39:31.055Z,100345.91
2022-08-01T10:44:34.288Z,100353.09
2022-08-01T10:49:38.743Z,100350.00
2022-08-01T10:54:52.518Z,100351.16
2022-08-01T11:00:01.003Z,100352.47
2022-08-01T11:05:04.723Z,100354.31
2022-08-01T11:10:14.535Z,100347.22
2022-08-01T11:15:31.095Z,100347.75
2022-08-01T11:20:32.590Z,100348.50
2022-08-01T11:26:10.644Z,100344.00
2022-08-01T11:31:37.044Z,100343.06
2022-08-01T11:36:57.472Z,100332.53
2022-08-01T11:41:55.882Z,100337.53
2022-08-01T11:47:08.588Z,100334.72
2022-08-01T11:52:10.681Z,100336.28
2022-08-01T11:57:12.825Z,100341.00
2022-08-01T12:02:30.538Z,100328.34
2022-08-01T12:07:31.925Z,100327.81
2022-08-01T12:12:35.498Z,100312.38
2022-08-01T12:17:37.561Z,100309.34
2022-08-01T12:22:37.182Z,100304.66
2022-08-01T12:27:35.897Z,100290.66
2022-08-01T12:32:39.858Z,100295.59
2022-08-01T12:37:45.198Z,100299.94
2022-08-01T12:42:47.837Z,100300.25
2022-08-01T12:47:50.061Z,100308.34
2022-08-01T12:52:50.315Z,100287.56
2022-08-01T12:57:52.795Z,100300.31
2022-08-01T13:03:02.736Z,100286.44
2022-08-01T13:08:06.931Z,100285.56
2022-08-01T13:13:06.317Z,100291.44
2022-08-01T13:18:26.610Z,100281.97
2022-08-01T13:24:03.085Z,100279.34
2022-08-01T13:28:44.500Z,100281.66
2022-08-01T13:33:59.934Z,100277.06
2022-08-01T13:39:17.027Z,100284.16
2022-08-01T13:44:16.296Z,100271.06
2022-08-01T13:49:16.821Z,100278.16
2022-08-01T13:54:16.173Z,100268.94
2022-08-01T13:59:15.457Z,100286.03
2022-08-01T14:04:14.617Z,100274.94
2022-08-01T14:09:24.407Z,100265.38
2022-08-01T14:14:23.776Z,100276.22
2022-08-01T14:19:38.475Z,100277.66
2022-08-01T14:24:40.072Z,100275.38
2022-08-01T14:30:01.146Z,100280.66
2022-08-01T14:34:59.671Z,100280.03
2022-08-01T14:40:01.577Z,100278.91
2022-08-01T14:45:01.446Z,100266.56
2022-08-01T14:50:00.305Z,100269.69
2022-08-01T14:55:00.620Z,100261.41
2022-08-01T14:59:59.727Z,100268.84
2022-08-01T15:04:58.686Z,100269.25
2022-08-01T15:09:57.547Z,100270.69
2022-08-01T15:14:58.905Z,100271.50
2022-08-01T15:19:59.037Z,100276.31
2022-08-01T15:24:59.911Z,100266.59
2022-08-01T15:30:00.071Z,100266.91
2022-08-01T15:34:58.893Z,100265.38
2022-08-01T15:39:57.662Z,100267.56
2022-08-01T15:44:56.525Z,100272.09
2022-08-01T15:50:00.511Z,100271.94
2022-08-01T15:55:01.868Z,100274.28
2022-08-01T16:00:00.626Z,100272.78
2022-08-01T16:05:00.857Z,100275.81
2022-08-01T16:09:59.633Z,100279.44
2022-08-01T16:14:58.560Z,100287.88
2022-08-01T16:19:57.437Z,100284.03
2022-08-01T16:25:00.727Z,100293.97
2022-08-01T16:29:59.831Z,100294.38
2022-08-01T16:34:58.612Z,100291.50
2022-08-01T16:39:59.155Z,100306.34
2022-08-01T16:45:02.086Z,100309.41
2022-08-01T16:50:09.706Z,100303.47
2022-08-01T16:55:11.407Z,100312.13
2022-08-01T17:00:20.836Z,100312.88
2022-08-01T17:05:20.416Z,100316.72
2022-08-01T17:10:20.524Z,100317.50
2022-08-01T17:15:19.071Z,100322.13
2022-08-01T17:20:17.870Z,100331.16
2022-08-01T17:25:17.992Z,100330.41
2022-08-01T17:30:18.124Z,100335.53
2022-08-01T17:35:17.831Z,100343.47
2022-08-01T17:40:38.955Z,100340.19
2022-08-01T17:45:50.307Z,100343.22
2022-08-01T17:50:51.988Z,100351.97
2022-08-01T17:55:53.384Z,100356.41
2022-08-01T18:00:57.255Z,100364.00
2022-08-01T18:05:56.119Z,100363.13
2022-08-01T18:10:55.642Z,100378.69
2022-08-01T18:15:54.408Z,100381.75
2022-08-01T18:20:56.469Z,100386.78
2022-08-01T18:25:56.644Z,100386.16
2022-08-01T18:30:57.299Z,100400.44
2022-08-01T18:36:03.753Z,100410.25
2022-08-01T18:41:03.508Z,100406.91
2022-08-01T18:46:04.248Z,100415.66
2022-08-01T18:51:04.519Z,100419.44
2022-08-01T18:56:11.910Z,100419.09
2022-08-01T19:01:10.918Z,100426.09
2022-08-01T19:06:11.310Z,100436.56
2022-08-01T19:11:10.056Z,100438.47
2022-08-01T19:16:08.834Z,100431.84
2022-08-01T19:21:07.677Z,100436.44
2022-08-01T19:26:12.733Z,100449.38
2022-08-01T19:31:13.225Z,100453.56
2022-08-01T19:36:18.620Z,100450.66
2022-08-01T19:41:19.894Z,100462.97
2022-08-01T19:46:18.771Z,100466.47
2022-08-01T19:51:18.388Z,100466.44
2022-08-01T19:56:20.869Z,100463.09
2022-08-01T20:01:20.656Z,100471.38
2022-08-01T20:06:20.257Z,100475.09
2022-08-01T20:11:24.706Z,100476.75
2022-08-01T20:16:24.007Z,100478.81
2022-08-01T20:21:24.942Z,100475.50
2022-08-01T20:26:28.236Z,100478.19
2022-08-01T20:31:33.953Z,100468.38
2022-08-01T20:36:42.787Z,100475.78
2022-08-01T20:41:59.745Z,100476.16
2022-08-01T20:47:01.238Z,100480.72
2022-08-01T20:52:00.155Z,100466.91
2022-08-01T20:57:17.115Z,100474.38
2022-08-01T21:02:31.942Z,100485.38
2022-08-01T21:07:35.419Z,100482.56
2022-08-01T21:12:45.015Z,100493.94
2022-08-01T21:17:47.630Z,100488.09
2022-08-01T21:22:57.318Z,100491.34
2022-08-01T21:27:57.639Z,100489.03
2022-08-01T21:32:57.025Z,100495.16
2022-08-01T21:37:59.762Z,100502.13
2022-08-01T21:43:02.057Z,100509.81
2022-08-01T21:48:01.162Z,100514.94
2022-08-01T21:53:11.474Z,100517.25
2022-08-01T21:58:24.175Z,100519.03
2022-08-01T22:03:26.437Z,100515.88
2022-08-01T22:08:34.521Z,100517.91
2022-08-01T22:13:36.467Z,100525.09
2022-08-01T22:18:37.623Z,100528.53
2022-08-01T22:23:38.216Z,100527.75
2022-08-01T22:28:39.610Z,100530.44
2022-08-01T22:33:39.191Z,100526.81
2022-08-01T22:38:37.879Z,100526.03
2022-08-01T22:43:43.139Z,100520.59
2022-08-01T22:48:47.641Z,100528.66
2022-08-01T22:53:54.614Z,100521.63
2022-08-01T22:58:57.659Z,100526.81
2022-08-01T23:04:00.413Z,100523.47
2022-08-01T23:09:01.546Z,100521.91
2022-08-01T23:14:03.745Z,100522.53
2022-08-01T23:19:03.702Z,100531.38
2022-08-01T23:24:03.304Z,100529.53
2022-08-01T23:29:04.244Z,100534.53
2022-08-01T23:34:03.073Z,100531.63
2022-08-01T23:39:02.036Z,100532.22
2022-08-01T23:44:00.799Z,100526.22
2022-08-01T23:49:02.280Z,100525.94
2022-08-01T23:54:01.084Z,100525.25
2022-08-01T23:58:59.865Z,100536.38
